sensor_id;sensor_type;location;lat;lon;timestamp;pressure;altitude;pressure_sealevel;temperature;humidity
62031;BME280;62035;52.094;5.112;2023-01-29T00:02:19;103128.72;;;5.20;100.00
62031;BME280;62035;52.094;5.112;2023-01-29T00:04:48;103119.41;;;5.33;100.00
62031;BME280;62035;52.094;5.112;2023-01-29T00:07:15;103109.94;;;5.27;100.00
62031;BME280;62035;52.094;5.112;2023-01-29T00:09:43;103106.88;;;5.38;100.00
62031;BME280;62035;52.094;5.112;2023-01-29T00:12:10;103102.78;;;5.53;100.00
62031;BME280;62035;52.094;5.112;2023-01-29T00:14:38;103091.25;;;5.55;100.00
62031;BME280;62035;52.094;5.112;2023-01-29T00:17:06;103088.97;;;5.46;100.00
62031;BME280;62035;52.094;5.112;2023-01-29T00:19:34;103084.91;;;5.59;100.00
62031;BME280;62035;52.094;5.112;2023-01-29T00:22:03;103072.25;;;5.46;100.00
62031;BME280;62035;52.094;5.112;2023-01-29T00:24:31;103075.38;;;5.33;100.00
62031;BME280;62035;52.094;5.112;2023-01-29T00:26:58;103069.06;;;5.38;100.00
62031;BME280;62035;52.094;5.112;2023-01-29T00:29:26;103070.44;;;5.68;100.00
62031;BME280;62035;52.094;5.112;2023-01-29T00:31:53;103069.34;;;5.74;100.00
62031;BME280;62035;52.094;5.112;2023-01-29T00:34:21;103082.56;;;5.52;100.00
62031;BME280;62035;52.094;5.112;2023-01-29T00:36:49;103073.81;;;5.72;100.00
62031;BME280;62035;52.094;5.112;2023-01-29T00:39:18;103077.53;;;5.89;100.00
62031;BME280;62035;52.094;5.112;2023-01-29T00:41:50;103072.91;;;5.73;100.00
62031;BME280;62035;52.094;5.112;2023-01-29T00:44:35;103075.50;;;5.52;100.00
62031;BME280;62035;52.094;5.112;2023-01-29T00:47:21;103064.75;;;5.57;100.00
62031;BME280;62035;52.094;5.112;2023-01-29T00:49:59;103054.84;;;5.62;100.00
62031;BME280;62035;52.094;5.112;2023-01-29T00:52:28;103061.97;;;5.82;100.00
62031;BME280;62035;52.094;5.112;2023-01-29T00:54:59;103054.84;;;5.62;100.00
62031;BME280;62035;52.094;5.112;2023-01-29T00:57:28;103058.25;;;5.44;100.00
62031;BME280;62035;52.094;5.112;2023-01-29T00:59:57;103050.09;;;5.70;100.00
62031;BME280;62035;52.094;5.112;2023-01-29T01:02:25;103048.13;;;5.55;100.00
62031;BME280;62035;52.094;5.112;2023-01-29T01:05:12;103046.41;;;5.54;100.00
62031;BME280;62035;52.094;5.112;2023-01-29T01:07:44;103051.94;;;5.48;100.00
62031;BME280;62035;52.094;5.112;2023-01-29T01:10:16;103044.28;;;5.20;100.00
62031;BME280;62035;52.094;5.112;2023-01-29T01:12:50;103028.09;;;5.27;100.00
62031;BME280;62035;52.094;5.112;2023-01-29T01:15:21;103024.72;;;5.46;100.00
62031;BME280;62035;52.094;5.112;2023-01-29T01:17:52;103032.53;;;5.49;100.00
62031;BME280;62035;52.094;5.112;2023-01-29T01:20:20;103036.63;;;5.56;100.00
62031;BME280;62035;52.094;5.112;2023-01-29T01:22:48;103041.38;;;5.68;100.00
62031;BME280;62035;52.094;5.112;2023-01-29T01:25:17;103039.34;;;5.75;100.00
62031;BME280;62035;52.094;5.112;2023-01-29T01:27:45;103041.63;;;5.62;100.00
62031;BME280;62035;52.094;5.112;2023-01-29T01:30:14;103043.69;;;5.55;100.00
62031;BME280;62035;52.094;5.112;2023-01-29T01:32:42;103048.84;;;5.58;100.00
62031;BME280;62035;52.094;5.112;2023-01-29T01:35:10;103056.50;;;5.64;100.00
62031;BME280;62035;52.094;5.112;2023-01-29T01:37:39;103062.22;;;5.76;100.00
62031;BME280;62035;52.094;5.112;2023-01-29T01:40:13;103062.34;;;5.94;100.00
62031;BME280;62035;52.094;5.112;2023-01-29T01:42:46;103056.72;;;6.22;100.00
62031;BME280;62035;52.094;5.112;2023-01-29T01:45:21;103053.34;;;6.19;100.00
62031;BME280;62035;52.094;5.112;2023-01-29T01:47:56;103055.03;;;6.40;100.00
62031;BME280;62035;52.094;5.112;2023-01-29T01:50:32;103055.19;;;6.17;100.00
62031;BME280;62035;52.094;5.112;2023-01-29T01:53:07;103044.03;;;6.30;100.00
62031;BME280;62035;52.094;5.112;2023-01-29T01:55:40;103053.34;;;6.19;100.00
62031;BME280;62035;52.094;5.112;2023-01-29T01:58:21;103053.53;;;6.14;100.00
62031;BME280;62035;52.094;5.112;2023-01-29T02:00:52;103049.25;;;6.12;100.00
62031;BME280;62035;52.094;5.112;2023-01-29T02:03:21;103055.19;;;6.17;100.00
62031;BME280;62035;52.094;5.112;2023-01-29T02:06:09;103053.25;;;6.00;100.00
62031;BME280;62035;52.094;5.112;2023-01-29T02:08:57;103057.47;;;5.84;100.00
62031;BME280;62035;52.094;5.112;2023-01-29T02:11:49;103057.53;;;5.82;100.00
62031;BME280;62035;52.094;5.112;2023-01-29T02:14:19;103047.59;;;5.89;100.00
62031;BME280;62035;52.094;5.112;2023-01-29T02:16:47;103043.34;;;5.85;100.00
62031;BME280;62035;52.094;5.112;2023-01-29T02:19:19;103045.81;;;5.89;100.00
62031;BME280;62035;52.094;5.112;2023-01-29T02:22:11;103047.94;;;5.80;100.00
62031;BME280;62035;52.094;5.112;2023-01-29T02:25:23;103037.69;;;5.72;100.00
62031;BME280;62035;52.094;5.112;2023-01-29T02:28:31;103042.31;;;5.67;100.00
62031;BME280;62035;52.094;5.112;2023-01-29T02:31:10;103050.09;;;5.70;100.00
62031;BME280;62035;52.094;5.112;2023-01-29T02:33:52;103051.19;;;5.86;100.00
62031;BME280;62035;52.094;5.112;2023-01-29T02:36:34;103060.53;;;6.15;100.00
62031;BME280;62035;52.094;5.112;2023-01-29T02:39:13;103059.56;;;5.97;100.00
62031;BME280;62035;52.094;5.112;2023-01-29T02:41:49;103061.78;;;6.07;100.00
62031;BME280;62035;52.094;5.112;2023-01-29T02:44:33;103062.28;;;5.96;100.00
62031;BME280;62035;52.094;5.112;2023-01-29T02:47:09;103048.41;;;5.91;100.00
62031;BME280;62035;52.094;5.112;2023-01-29T02:49:46;103053.03;;;5.84;100.00
62031;BME280;62035;52.094;5.112;2023-01-29T02:52:22;103055.91;;;6.00;100.00
62031;BME280;62035;52.094;5.112;2023-01-29T02:54:59;103053.44;;;5.97;100.00
62031;BME280;62035;52.094;5.112;2023-01-29T02:57:36;103061.75;;;5.86;100.00
62031;BME280;62035;52.094;5.112;2023-01-29T03:00:11;103049.25;;;6.12;100.00
62031;BME280;62035;52.094;5.112;2023-01-29T03:02:47;103065.91;;;5.93;100.00
62031;BME280;62035;52.094;5.112;2023-01-29T03:05:23;103055.63;;;5.86;100.00
62031;BME280;62035;52.094;5.112;2023-01-29T03:08:02;103057.25;;;5.90;100.00
62031;BME280;62035;52.094;5.112;2023-01-29T03:10:39;103054.13;;;6.00;100.00
62031;BME280;62035;52.094;5.112;2023-01-29T03:13:15;103053.41;;;5.75;100.00
62031;BME280;62035;52.094;5.112;2023-01-29T03:15:54;103042.31;;;5.89;100.00
62031;BME280;62035;52.094;5.112;2023-01-29T03:18:31;103027.78;;;5.77;100.00
62031;BME280;62035;52.094;5.112;2023-01-29T03:21:11;103042.97;;;5.72;100.00
62031;BME280;62035;52.094;5.112;2023-01-29T03:24:03;103031.78;;;5.87;100.00
62031;BME280;62035;52.094;5.112;2023-01-29T03:26:51;103035.84;;;5.74;100.00
62031;BME280;62035;52.094;5.112;2023-01-29T03:29:39;103035.91;;;5.73;100.00
62031;BME280;62035;52.094;5.112;2023-01-29T03:32:29;103029.66;;;5.75;100.00
62031;BME280;62035;52.094;5.112;2023-01-29T03:34:59;103019.88;;;5.57;100.00
62031;BME280;62035;52.094;5.112;2023-01-29T03:37:33;103016.03;;;5.64;100.00
62031;BME280;62035;52.094;5.112;2023-01-29T03:40:06;103009.03;;;5.63;100.00
62031;BME280;62035;52.094;5.112;2023-01-29T03:42:49;103010.53;;;5.68;100.00
62031;BME280;62035;52.094;5.112;2023-01-29T03:45:31;103009.03;;;5.83;100.00
62031;BME280;62035;52.094;5.112;2023-01-29T03:48:13;103008.63;;;5.72;100.00
62031;BME280;62035;52.094;5.112;2023-01-29T03:50:55;103002.72;;;5.87;100.00
62031;BME280;62035;52.094;5.112;2023-01-29T03:53:32;102998.75;;;5.77;100.00
62031;BME280;62035;52.094;5.112;2023-01-29T03:56:19;102995.91;;;5.82;100.00
62031;BME280;62035;52.094;5.112;2023-01-29T03:59:00;103000.66;;;5.74;100.00
62031;BME280;62035;52.094;5.112;2023-01-29T04:01:40;102996.53;;;5.66;100.00
62031;BME280;62035;52.094;5.112;2023-01-29T04:04:17;102999.13;;;5.68;100.00
62031;BME280;62035;52.094;5.112;2023-01-29T04:06:51;102996.97;;;5.57;100.00
62031;BME280;62035;52.094;5.112;2023-01-29T04:09:28;102991.25;;;5.66;100.00
62031;BME280;62035;52.094;5.112;2023-01-29T04:12:01;102992.13;;;5.67;100.00
62031;BME280;62035;52.094;5.112;2023-01-29T04:14:34;102978.53;;;5.56;100.00
62031;BME280;62035;52.094;5.112;2023-01-29T04:17:07;102983.13;;;5.71;100.00
62031;BME280;62035;52.094;5.112;2023-01-29T04:19:40;102977.91;;;5.49;100.00
62031;BME280;62035;52.094;5.112;2023-01-29T04:22:12;102981.69;;;5.44;100.00
62031;BME280;62035;52.094;5.112;2023-01-29T04:24:43;102977.19;;;5.24;100.00
62031;BME280;62035;52.094;5.112;2023-01-29T04:27:22;102982.06;;;5.34;100.00
62031;BME280;62035;52.094;5.112;2023-01-29T04:30:02;102975.41;;;5.24;100.00
62031;BME280;62035;52.094;5.112;2023-01-29T04:32:53;102977.38;;;5.41;100.00
62031;BME280;62035;52.094;5.112;2023-01-29T04:35:38;102986.03;;;5.45;100.00
62031;BME280;62035;52.094;5.112;2023-01-29T04:38:22;102967.28;;;5.51;100.00
62031;BME280;62035;52.094;5.112;2023-01-29T04:41:04;102971.59;;;5.53;100.00
62031;BME280;62035;52.094;5.112;2023-01-29T04:43:41;102967.63;;;5.63;100.00
62031;BME280;62035;52.094;5.112;2023-01-29T04:46:17;102966.75;;;5.43;100.00
62031;BME280;62035;52.094;5.112;2023-01-29T04:49:00;102962.22;;;5.46;100.00
62031;BME280;62035;52.094;5.112;2023-01-29T04:51:46;102969.16;;;5.49;100.00
62031;BME280;62035;52.094;5.112;2023-01-29T04:54:24;102964.31;;;5.38;100.00
62031;BME280;62035;52.094;5.112;2023-01-29T04:57:05;102955.09;;;5.48;100.00
62031;BME280;62035;52.094;5.112;2023-01-29T04:59:43;102947.28;;;5.65;100.00
62031;BME280;62035;52.094;5.112;2023-01-29T05:02:14;102940.16;;;5.67;100.00
62031;BME280;62035;52.094;5.112;2023-01-29T05:04:44;102940.56;;;5.58;100.00
62031;BME280;62035;52.094;5.112;2023-01-29T05:07:17;102941.78;;;5.29;100.00
62031;BME280;62035;52.094;5.112;2023-01-29T05:09:47;102940.22;;;5.46;100.00
62031;BME280;62035;52.094;5.112;2023-01-29T05:12:17;102946.81;;;5.35;100.00
62031;BME280;62035;52.094;5.112;2023-01-29T05:14:46;102932.13;;;5.28;100.00
62031;BME280;62035;52.094;5.112;2023-01-29T05:17:17;102941.16;;;5.45;100.00
62031;BME280;62035;52.094;5.112;2023-01-29T05:19:47;102941.16;;;5.23;100.00
62031;BME280;62035;52.094;5.112;2023-01-29T05:22:17;102937.28;;;5.31;100.00
62031;BME280;62035;52.094;5.112;2023-01-29T05:24:47;102940.97;;;5.27;100.00
62031;BME280;62035;52.094;5.112;2023-01-29T05:27:18;102942.75;;;5.07;100.00
62031;BME280;62035;52.094;5.112;2023-01-29T05:30:06;102949.72;;;5.08;100.00
62031;BME280;62035;52.094;5.112;2023-01-29T05:32:35;102940.34;;;5.43;100.00
62031;BME280;62035;52.094;5.112;2023-01-29T05:35:05;102934.47;;;5.36;100.00
62031;BME280;62035;52.094;5.112;2023-01-29T05:37:34;102938.16;;;5.32;100.00
62031;BME280;62035;52.094;5.112;2023-01-29T05:40:02;102937.03;;;5.38;100.00
62031;BME280;62035;52.094;5.112;2023-01-29T05:42:33;102940.97;;;5.27;100.00
62031;BME280;62035;52.094;5.112;2023-01-29T05:45:01;102935.50;;;5.32;100.00
62031;BME280;62035;52.094;5.112;2023-01-29T05:47:29;102941.22;;;5.43;100.00
62031;BME280;62035;52.094;5.112;2023-01-29T05:49:56;102941.66;;;5.32;100.00
62031;BME280;62035;52.094;5.112;2023-01-29T05:52:24;102949.56;;;5.32;100.00
62031;BME280;62035;52.094;5.112;2023-01-29T05:54:53;102941.97;;;5.25;100.00
62031;BME280;62035;52.094;5.112;2023-01-29T05:57:20;102939.38;;;5.45;100.00
62031;BME280;62035;52.094;5.112;2023-01-29T05:59:48;102935.31;;;5.36;100.00
62031;BME280;62035;52.094;5.112;2023-01-29T06:02:15;102930.53;;;5.24;100.00
62031;BME280;62035;52.094;5.112;2023-01-29T06:04:44;102919.41;;;4.96;100.00
62031;BME280;62035;52.094;5.112;2023-01-29T06:07:12;102920.53;;;5.12;100.00
62031;BME280;62035;52.094;5.112;2023-01-29T06:09:39;102920.53;;;5.32;100.00
62031;BME280;62035;52.094;5.112;2023-01-29T06:12:08;102916.56;;;5.22;100.00
62031;BME280;62035;52.094;5.112;2023-01-29T06:14:36;102907.59;;;5.26;100.00
62031;BME280;62035;52.094;5.112;2023-01-29T06:17:03;102900.94;;;5.18;100.00
62031;BME280;62035;52.094;5.112;2023-01-29T06:19:31;102908.31;;;5.30;100.00
62031;BME280;62035;52.094;5.112;2023-01-29T06:21:59;102901.72;;;5.60;100.00
62031;BME280;62035;52.094;5.112;2023-01-29T06:24:26;102900.34;;;5.52;100.00
62031;BME280;62035;52.094;5.112;2023-01-29T06:26:54;102901.06;;;5.76;100.00
62031;BME280;62035;52.094;5.112;2023-01-29T06:29:23;102897.88;;;5.88;100.00
62031;BME280;62035;52.094;5.112;2023-01-29T06:31:50;102886.81;;;5.39;100.00
62031;BME280;62035;52.094;5.112;2023-01-29T06:34:18;102889.78;;;5.31;100.00
62031;BME280;62035;52.094;5.112;2023-01-29T06:36:45;102880.28;;;5.48;100.00
62031;BME280;62035;52.094;5.112;2023-01-29T06:39:13;102888.66;;;5.37;100.00
62031;BME280;62035;52.094;5.112;2023-01-29T06:41:41;102891.09;;;5.42;100.00
62031;BME280;62035;52.094;5.112;2023-01-29T06:44:10;102882.78;;;5.30;100.00
62031;BME280;62035;52.094;5.112;2023-01-29T06:46:39;102886.88;;;5.38;100.00
62031;BME280;62035;52.094;5.112;2023-01-29T06:49:07;102888.41;;;5.43;100.00
62031;BME280;62035;52.094;5.112;2023-01-29T06:51:34;102897.63;;;5.33;100.00
62031;BME280;62035;52.094;5.112;2023-01-29T06:54:02;102896.38;;;5.42;100.00
62031;BME280;62035;52.094;5.112;2023-01-29T06:56:31;102898.75;;;5.48;100.00
62031;BME280;62035;52.094;5.112;2023-01-29T06:58:58;102897.63;;;5.33;100.00
62031;BME280;62035;52.094;5.112;2023-01-29T07:01:26;102896.59;;;5.17;100.00
62031;BME280;62035;52.094;5.112;2023-01-29T07:03:55;102902.72;;;4.95;100.00
62031;BME280;62035;52.094;5.112;2023-01-29T07:06:26;102900.09;;;4.95;100.00
62031;BME280;62035;52.094;5.112;2023-01-29T07:08:55;102902.28;;;5.06;100.00
62031;BME280;62035;52.094;5.112;2023-01-29T07:11:23;102897.28;;;5.20;100.00
62031;BME280;62035;52.094;5.112;2023-01-29T07:13:50;102891.63;;;5.29;100.00
62031;BME280;62035;52.094;5.112;2023-01-29T07:16:18;102887.00;;;5.34;100.00
62031;BME280;62035;52.094;5.112;2023-01-29T07:18:45;102882.53;;;5.16;100.00
62031;BME280;62035;52.094;5.112;2023-01-29T07:21:14;102888.00;;;5.32;100.00
62031;BME280;62035;52.094;5.112;2023-01-29T07:23:42;102890.81;;;5.27;100.00
62031;BME280;62035;52.094;5.112;2023-01-29T07:26:10;102889.91;;;5.28;100.00
62031;BME280;62035;52.094;5.112;2023-01-29T07:28:39;102886.56;;;5.45;100.00
62031;BME280;62035;52.094;5.112;2023-01-29T07:31:07;102885.88;;;5.40;100.00
62031;BME280;62035;52.094;5.112;2023-01-29T07:33:39;102894.63;;;5.20;100.00
62031;BME280;62035;52.094;5.112;2023-01-29T07:36:08;102894.41;;;5.47;100.00
62031;BME280;62035;52.094;5.112;2023-01-29T07:38:38;102895.72;;;5.57;100.00
62031;BME280;62035;52.094;5.112;2023-01-29T07:41:06;102889.84;;;5.50;100.00
62031;BME280;62035;52.094;5.112;2023-01-29T07:43:35;102887.94;;;5.33;100.00
62031;BME280;62035;52.094;5.112;2023-01-29T07:46:03;102886.16;;;5.34;100.00
62031;BME280;62035;52.094;5.112;2023-01-29T07:48:31;102871.56;;;5.46;100.00
62031;BME280;62035;52.094;5.112;2023-01-29T07:50:59;102873.16;;;5.50;100.00
62031;BME280;62035;52.094;5.112;2023-01-29T07:53:27;102868.47;;;5.36;100.00
62031;BME280;62035;52.094;5.112;2023-01-29T07:55:57;102873.34;;;5.45;100.00
62031;BME280;62035;52.094;5.112;2023-01-29T07:58:24;102865.09;;;5.53;100.00
62031;BME280;62035;52.094;5.112;2023-01-29T08:00:52;102860.59;;;5.55;100.00
62031;BME280;62035;52.094;5.112;2023-01-29T08:03:20;102844.03;;;5.51;100.00
62031;BME280;62035;52.094;5.112;2023-01-29T08:05:47;102847.75;;;5.66;100.00
62031;BME280;62035;52.094;5.112;2023-01-29T08:08:15;102847.97;;;5.61;100.00
62031;BME280;62035;52.094;5.112;2023-01-29T08:10:44;102843.03;;;5.54;100.00
62031;BME280;62035;52.094;5.112;2023-01-29T08:13:13;102851.16;;;5.49;100.00
62031;BME280;62035;52.094;5.112;2023-01-29T08:15:42;102845.22;;;5.24;100.00
62031;BME280;62035;52.094;5.112;2023-01-29T08:18:11;102837.69;;;5.35;100.00
62031;BME280;62035;52.094;5.112;2023-01-29T08:20:39;102844.56;;;5.59;100.00
62031;BME280;62035;52.094;5.112;2023-01-29T08:23:08;102848.75;;;5.63;100.00
62031;BME280;62035;52.094;5.112;2023-01-29T08:25:38;102843.25;;;5.88;100.00
62031;BME280;62035;52.094;5.112;2023-01-29T08:28:06;102839.88;;;5.46;100.00
62031;BME280;62035;52.094;5.112;2023-01-29T08:30:35;102842.31;;;5.50;100.00
62031;BME280;62035;52.094;5.112;2023-01-29T08:33:03;102843.03;;;5.54;100.00
62031;BME280;62035;52.094;5.112;2023-01-29T08:35:31;102855.13;;;5.59;100.00
62031;BME280;62035;52.094;5.112;2023-01-29T08:38:00;102841.25;;;5.54;100.00
62031;BME280;62035;52.094;5.112;2023-01-29T08:40:30;102832.13;;;5.61;100.00
62031;BME280;62035;52.094;5.112;2023-01-29T08:43:00;102832.69;;;5.49;100.00
62031;BME280;62035;52.094;5.112;2023-01-29T08:45:30;102834.56;;;5.66;100.00
62031;BME280;62035;52.094;5.112;2023-01-29T08:48:01;102827.94;;;5.76;100.00
62031;BME280;62035;52.094;5.112;2023-01-29T08:50:29;102816.91;;;5.66;100.00
62031;BME280;62035;52.094;5.112;2023-01-29T08:53:00;102822.66;;;5.57;100.00
62031;BME280;62035;52.094;5.112;2023-01-29T08:55:30;102819.34;;;5.52;100.00
62031;BME280;62035;52.094;5.112;2023-01-29T08:57:57;102821.78;;;5.76;100.00
62031;BME280;62035;52.094;5.112;2023-01-29T09:00:25;102816.72;;;5.91;100.00
62031;BME280;62035;52.094;5.112;2023-01-29T09:02:53;102818.44;;;5.92;100.00
62031;BME280;62035;52.094;5.112;2023-01-29T09:05:22;102820.94;;;5.95;100.00
62031;BME280;62035;52.094;5.112;2023-01-29T09:07:49;102813.66;;;5.80;100.00
62031;BME280;62035;52.094;5.112;2023-01-29T09:10:17;102815.25;;;5.84;100.00
62031;BME280;62035;52.094;5.112;2023-01-29T09:12:45;102817.22;;;5.99;100.00
62031;BME280;62035;52.094;5.112;2023-01-29T09:15:12;102815.72;;;5.94;100.00
62031;BME280;62035;52.094;5.112;2023-01-29T09:17:40;102817.97;;;6.01;100.00
62031;BME280;62035;52.094;5.112;2023-01-29T09:20:09;102811.69;;;6.04;100.00
62031;BME280;62035;52.094;5.112;2023-01-29T09:22:38;102817.88;;;5.84;100.00
62031;BME280;62035;52.094;5.112;2023-01-29T09:25:07;102819.41;;;5.90;100.00
62031;BME280;62035;52.094;5.112;2023-01-29T09:27:35;102817.88;;;5.84;100.00
62031;BME280;62035;52.094;5.112;2023-01-29T09:30:04;102811.75;;;6.02;100.00
62031;BME280;62035;52.094;5.112;2023-01-29T09:32:33;102808.78;;;5.91;100.00
62031;BME280;62035;52.094;5.112;2023-01-29T09:35:01;102808.03;;;6.07;100.00
62031;BME280;62035;52.094;5.112;2023-01-29T09:37:28;102813.13;;;5.92;100.00
62031;BME280;62035;52.094;5.112;2023-01-29T09:39:57;102808.50;;;5.97;100.00
62031;BME280;62035;52.094;5.112;2023-01-29T09:42:27;102812.44;;;5.89;100.00
62031;BME280;62035;52.094;5.112;2023-01-29T09:45:11;102810.06;;;6.20;100.00
62031;BME280;62035;52.094;5.112;2023-01-29T09:47:42;102817.47;;;6.12;100.00
62031;BME280;62035;52.094;5.112;2023-01-29T09:50:16;102815.00;;;5.70;100.00
62031;BME280;62035;52.094;5.112;2023-01-29T09:52:50;102819.00;;;5.79;100.00
62031;BME280;62035;52.094;5.112;2023-01-29T09:55:27;102799.94;;;5.92;100.00
62031;BME280;62035;52.094;5.112;2023-01-29T09:57:59;102808.75;;;6.10;100.00
62031;BME280;62035;52.094;5.112;2023-01-29T10:00:36;102810.13;;;6.19;100.00
62031;BME280;62035;52.094;5.112;2023-01-29T10:03:18;102805.75;;;6.18;100.00
62031;BME280;62035;52.094;5.112;2023-01-29T10:06:24;102807.38;;;5.83;100.00
62031;BME280;62035;52.094;5.112;2023-01-29T10:12:22;102795.03;;;6.02;100.00
62031;BME280;62035;52.094;5.112;2023-01-29T10:15:16;102803.31;;;6.32;100.00
62031;BME280;62035;52.094;5.112;2023-01-29T10:18:07;102805.13;;;6.13;100.00
62031;BME280;62035;52.094;5.112;2023-01-29T10:21:00;102797.75;;;6.38;100.00
62031;BME280;62035;52.094;5.112;2023-01-29T10:23:39;102788.34;;;6.50;100.00
62031;BME280;62035;52.094;5.112;2023-01-29T10:26:12;102797.19;;;6.31;100.00
62031;BME280;62035;52.094;5.112;2023-01-29T10:28:43;102793.22;;;6.40;100.00
62031;BME280;62035;52.094;5.112;2023-01-29T10:31:18;102780.13;;;6.20;100.00
62031;BME280;62035;52.094;5.112;2023-01-29T10:33:53;102774.09;;;6.16;100.00
62031;BME280;62035;52.094;5.112;2023-01-29T10:36:32;102778.44;;;6.36;100.00
62031;BME280;62035;52.094;5.112;2023-01-29T10:39:04;102768.47;;;6.41;100.00
62031;BME280;62035;52.094;5.112;2023-01-29T10:41:47;102769.59;;;6.37;100.00
62031;BME280;62035;52.094;5.112;2023-01-29T10:44:35;102763.28;;;6.40;100.00
62031;BME280;62035;52.094;5.112;2023-01-29T10:47:23;102762.47;;;6.20;100.00
62031;BME280;62035;52.094;5.112;2023-01-29T10:50:17;102761.81;;;6.15;100.00
62031;BME280;62035;52.094;5.112;2023-01-29T10:53:11;102754.50;;;6.39;100.00
62031;BME280;62035;52.094;5.112;2023-01-29T10:56:04;102744.59;;;6.43;100.00
62031;BME280;62035;52.094;5.112;2023-01-29T10:58:47;102747.09;;;6.10;100.00
62031;BME280;62035;52.094;5.112;2023-01-29T11:01:18;102743.94;;;6.39;100.00
62031;BME280;62035;52.094;5.112;2023-01-29T11:03:55;102731.81;;;6.16;100.00
62031;BME280;62035;52.094;5.112;2023-01-29T11:06:28;102736.16;;;6.17;100.00
62031;BME280;62035;52.094;5.112;2023-01-29T11:09:02;102723.28;;;6.46;100.00
62031;BME280;62035;52.094;5.112;2023-01-29T11:11:39;102723.00;;;6.69;100.00
62031;BME280;62035;52.094;5.112;2023-01-29T11:14:12;102717.00;;;6.48;100.00
62031;BME280;62035;52.094;5.112;2023-01-29T11:16:49;102719.75;;;6.11;100.00
62031;BME280;62035;52.094;5.112;2023-01-29T11:19:17;102716.63;;;6.39;100.00
62031;BME280;62035;52.094;5.112;2023-01-29T11:22:01;102717.69;;;6.34;100.00
62031;BME280;62035;52.094;5.112;2023-01-29T11:24:30;102718.06;;;6.44;100.00
62031;BME280;62035;52.094;5.112;2023-01-29T11:26:58;102711.63;;;6.32;100.00
62031;BME280;62035;52.094;5.112;2023-01-29T11:29:38;102707.84;;;6.38;100.00
62031;BME280;62035;52.094;5.112;2023-01-29T11:32:11;102705.56;;;6.65;100.00
62031;BME280;62035;52.094;5.112;2023-01-29T11:34:56;102691.47;;;6.47;100.00
62031;BME280;62035;52.094;5.112;2023-01-29T11:37:32;102695.22;;;6.60;100.00
62031;BME280;62035;52.094;5.112;2023-01-29T11:40:31;102702.28;;;6.43;100.00
62031;BME280;62035;52.094;5.112;2023-01-29T11:43:17;102705.44;;;6.15;100.00
62031;BME280;62035;52.094;5.112;2023-01-29T11:45:48;102704.31;;;6.55;100.00
62031;BME280;62035;52.094;5.112;2023-01-29T11:48:22;102694.81;;;6.51;100.00
62031;BME280;62035;52.094;5.112;2023-01-29T11:50:59;102694.38;;;6.60;100.00
62031;BME280;62035;52.094;5.112;2023-01-29T11:53:38;102690.41;;;6.51;100.00
62031;BME280;62035;52.094;5.112;2023-01-29T11:56:31;102692.03;;;6.37;100.00
62031;BME280;62035;52.094;5.112;2023-01-29T12:02:03;102678.03;;;6.52;100.00
62031;BME280;62035;52.094;5.112;2023-01-29T12:04:39;102669.41;;;6.31;100.00
62031;BME280;62035;52.094;5.112;2023-01-29T12:07:11;102669.94;;;6.20;100.00
62031;BME280;62035;52.094;5.112;2023-01-29T12:09:48;102653.81;;;6.08;100.00
62031;BME280;62035;52.094;5.112;2023-01-29T12:12:27;102652.47;;;6.35;100.00
62031;BME280;62035;52.094;5.112;2023-01-29T12:17:55;102648.31;;;6.47;100.00
62031;BME280;62035;52.094;5.112;2023-01-29T12:20:32;102620.22;;;6.61;100.00
62031;BME280;62035;52.094;5.112;2023-01-29T12:23:13;102625.03;;;6.71;100.00
62031;BME280;62035;52.094;5.112;2023-01-29T12:25:56;102613.28;;;6.59;100.00
62031;BME280;62035;52.094;5.112;2023-01-29T12:28:36;102617.34;;;6.66;100.00
62031;BME280;62035;52.094;5.112;2023-01-29T12:31:26;102608.94;;;6.58;100.00
62031;BME280;62035;52.094;5.112;2023-01-29T12:34:07;102605.97;;;6.64;100.00
62031;BME280;62035;52.094;5.112;2023-01-29T12:36:47;102609.06;;;6.22;100.00
62031;BME280;62035;52.094;5.112;2023-01-29T12:39:19;102597.19;;;6.46;100.00
62031;BME280;62035;52.094;5.112;2023-01-29T12:41:51;102596.09;;;6.67;100.00
62031;BME280;62035;52.094;5.112;2023-01-29T12:44:29;102586.16;;;6.55;100.00
62031;BME280;62035;52.094;5.112;2023-01-29T12:47:05;102587.31;;;6.50;100.00
62031;BME280;62035;52.094;5.112;2023-01-29T12:49:36;102576.91;;;6.47;100.00
62031;BME280;62035;52.094;5.112;2023-01-29T12:52:10;102573.84;;;6.54;100.00
62031;BME280;62035;52.094;5.112;2023-01-29T12:54:47;102564.34;;;6.67;100.00
62031;BME280;62035;52.094;5.112;2023-01-29T12:57:22;102548.56;;;6.33;100.00
62031;BME280;62035;52.094;5.112;2023-01-29T12:59:58;102536.44;;;6.45;100.00
62031;BME280;62035;52.094;5.112;2023-01-29T13:02:35;102535.88;;;6.40;100.00
62031;BME280;62035;52.094;5.112;2023-01-29T13:05:17;102518.09;;;6.75;100.00
62031;BME280;62035;52.094;5.112;2023-01-29T13:07:55;102514.69;;;6.88;100.00
62031;BME280;62035;52.094;5.112;2023-01-29T13:10:31;102492.31;;;6.94;100.00
62031;BME280;62035;52.094;5.112;2023-01-29T13:13:10;102474.31;;;6.69;100.00
62031;BME280;62035;52.094;5.112;2023-01-29T13:15:42;102479.44;;;6.72;100.00
62031;BME280;62035;52.094;5.112;2023-01-29T13:18:32;102477.81;;;6.69;100.00
62031;BME280;62035;52.094;5.112;2023-01-29T13:21:13;102479.50;;;7.02;100.00
62031;BME280;62035;52.094;5.112;2023-01-29T13:23:46;102476.69;;;7.05;100.00
62031;BME280;62035;52.094;5.112;2023-01-29T13:26:17;102445.72;;;6.91;100.00
62031;BME280;62035;52.094;5.112;2023-01-29T13:28:46;102475.63;;;7.23;100.00
62031;BME280;62035;52.094;5.112;2023-01-29T13:31:22;102469.34;;;6.94;100.00
62031;BME280;62035;52.094;5.112;2023-01-29T13:34:00;102466.78;;;6.93;100.00
62031;BME280;62035;52.094;5.112;2023-01-29T13:36:36;102455.19;;;6.95;100.00